KFTW/FTW METAR and TAF weather

Enter ICAO airport designator
Station Type Date Time Source
KFTW METAR 2020/01/24 02:53 UTC NOAA

KFTW 240253Z 26004KT 10SM CLR 07/03 A3007 RMK AO2 SLP182 T00720028 53014


Station Type Date Time Source
KFTW Decoded METAR 2020/01/24 02:53 UTC NOAA

FORT WORTH MEACHAM INTERNATIONAL ., TX, United States (KFTW) 32-50N 097-22W 214M
Jan 23, 2020 - 09:53 PM EST / 2020.01.24 0253 UTC
Wind: from the W (260 degrees) at 5 MPH (4 KT):0
Visibility: 10 mile(s):0
Sky conditions: clear
Temperature: 45.0 F (7.2 C)
Dew Point: 37.0 F (2.8 C)
Relative Humidity: 73%
Pressure (altimeter): 30.07 in. Hg (1018 hPa)
Pressure tendency: 0.04 inches (1.4 hPa) higher than three hours ago
ob: KFTW 240253Z 26004KT 10SM CLR 07/03 A3007 RMK AO2 SLP182 T00720028 53014
cycle: 3

Station Type Date Time Source
KFTW TAF 2020/01/24 03:57 UTC NOAA

TAF
AMD KFTW 240254Z 2403/2424 28006KT P6SM FEW100
FM240800 30005KT P6SM SKC

Example: see airport list